sensor_id;sensor_type;location;lat;lon;timestamp;pressure;altitude;pressure_sealevel;temperature;humidity
13209;BME280;6669;42.678;23.332;2022-08-19T00:01:43;94277.81;;;22.79;100.00
13209;BME280;6669;42.678;23.332;2022-08-19T00:04:21;94274.03;;;22.65;100.00
13209;BME280;6669;42.678;23.332;2022-08-19T00:06:49;94293.56;;;22.53;100.00
13209;BME280;6669;42.678;23.332;2022-08-19T00:09:20;94280.59;;;22.52;100.00
13209;BME280;6669;42.678;23.332;2022-08-19T00:11:49;94273.13;;;22.49;100.00
13209;BME280;6669;42.678;23.332;2022-08-19T00:14:18;94282.19;;;22.53;100.00
13209;BME280;6669;42.678;23.332;2022-08-19T00:16:48;94286.22;;;22.61;100.00
13209;BME280;6669;42.678;23.332;2022-08-19T00:19:17;94285.97;;;22.67;100.00
13209;BME280;6669;42.678;23.332;2022-08-19T00:21:46;94288.84;;;22.61;100.00
13209;BME280;6669;42.678;23.332;2022-08-19T00:24:14;94297.88;;;22.65;100.00
13209;BME280;6669;42.678;23.332;2022-08-19T00:26:44;94289.97;;;22.70;100.00
13209;BME280;6669;42.678;23.332;2022-08-19T00:29:16;94296.34;;;22.74;100.00
13209;BME280;6669;42.678;23.332;2022-08-19T00:31:45;94301.63;;;22.74;100.00
13209;BME280;6669;42.678;23.332;2022-08-19T00:34:16;94288.13;;;22.71;100.00
13209;BME280;6669;42.678;23.332;2022-08-19T00:36:44;94297.16;;;22.75;100.00
13209;BME280;6669;42.678;23.332;2022-08-19T00:39:13;94280.94;;;22.66;100.00
13209;BME280;6669;42.678;23.332;2022-08-19T00:41:44;94281.44;;;22.63;100.00
13209;BME280;6669;42.678;23.332;2022-08-19T00:44:17;94283.84;;;22.64;100.00
13209;BME280;6669;42.678;23.332;2022-08-19T00:46:50;94280.88;;;22.56;100.00
13209;BME280;6669;42.678;23.332;2022-08-19T00:49:28;94281.91;;;22.49;100.00
13209;BME280;6669;42.678;23.332;2022-08-19T00:52:02;94277.84;;;22.36;100.00
13209;BME280;6669;42.678;23.332;2022-08-19T00:54:33;94284.94;;;22.36;100.00
13209;BME280;6669;42.678;23.332;2022-08-19T00:57:05;94291.50;;;22.28;100.00
13209;BME280;6669;42.678;23.332;2022-08-19T00:59:35;94284.78;;;22.15;100.00
13209;BME280;6669;42.678;23.332;2022-08-19T01:02:25;94281.47;;;21.98;100.00
13209;BME280;6669;42.678;23.332;2022-08-19T01:04:54;94289.88;;;21.90;100.00
13209;BME280;6669;42.678;23.332;2022-08-19T01:07:23;94286.09;;;21.80;100.00
13209;BME280;6669;42.678;23.332;2022-08-19T01:09:51;94278.28;;;21.68;100.00
13209;BME280;6669;42.678;23.332;2022-08-19T01:12:21;94294.72;;;21.70;100.00
13209;BME280;6669;42.678;23.332;2022-08-19T01:14:50;94286.69;;;21.60;100.00
13209;BME280;6669;42.678;23.332;2022-08-19T01:17:19;94280.47;;;21.49;100.00
13209;BME280;6669;42.678;23.332;2022-08-19T01:19:48;94282.56;;;21.47;100.00
13209;BME280;6669;42.678;23.332;2022-08-19T01:22:25;94282.25;;;21.44;100.00
13209;BME280;6669;42.678;23.332;2022-08-19T01:24:59;94264.59;;;21.22;100.00
13209;BME280;6669;42.678;23.332;2022-08-19T01:27:37;94271.41;;;21.18;100.00
13209;BME280;6669;42.678;23.332;2022-08-19T01:30:13;94274.00;;;21.13;100.00
13209;BME280;6669;42.678;23.332;2022-08-19T01:32:41;94281.84;;;21.07;100.00
13209;BME280;6669;42.678;23.332;2022-08-19T01:35:11;94283.31;;;20.98;100.00
13209;BME280;6669;42.678;23.332;2022-08-19T01:37:47;94285.97;;;20.98;100.00
13209;BME280;6669;42.678;23.332;2022-08-19T01:40:16;94280.38;;;20.95;100.00
13209;BME280;6669;42.678;23.332;2022-08-19T01:42:46;94278.69;;;20.88;100.00
13209;BME280;6669;42.678;23.332;2022-08-19T01:45:16;94268.63;;;20.85;100.00
13209;BME280;6669;42.678;23.332;2022-08-19T01:47:44;94282.16;;;20.89;100.00
13209;BME280;6669;42.678;23.332;2022-08-19T01:50:29;94278.63;;;20.83;100.00
13209;BME280;6669;42.678;23.332;2022-08-19T01:52:58;94278.16;;;20.86;100.00
13209;BME280;6669;42.678;23.332;2022-08-19T01:55:33;94266.91;;;20.74;100.00
13209;BME280;6669;42.678;23.332;2022-08-19T01:58:08;94284.47;;;20.85;100.00
13209;BME280;6669;42.678;23.332;2022-08-19T02:00:39;94275.19;;;20.83;100.00
13209;BME280;6669;42.678;23.332;2022-08-19T02:03:07;94283.44;;;20.86;100.00
13209;BME280;6669;42.678;23.332;2022-08-19T02:05:36;94283.75;;;20.90;100.00
13209;BME280;6669;42.678;23.332;2022-08-19T02:08:07;94293.41;;;21.01;100.00
13209;BME280;6669;42.678;23.332;2022-08-19T02:10:38;94290.78;;;21.01;100.00
13209;BME280;6669;42.678;23.332;2022-08-19T02:13:07;94285.50;;;21.01;100.00
13209;BME280;6669;42.678;23.332;2022-08-19T02:15:36;94282.78;;;20.96;100.00
13209;BME280;6669;42.678;23.332;2022-08-19T02:18:04;94267.09;;;20.89;100.00
13209;BME280;6669;42.678;23.332;2022-08-19T02:20:34;94278.94;;;20.87;100.00
13209;BME280;6669;42.678;23.332;2022-08-19T02:23:02;94277.66;;;20.89;100.00
13209;BME280;6669;42.678;23.332;2022-08-19T02:25:31;94282.09;;;20.84;100.00
13209;BME280;6669;42.678;23.332;2022-08-19T02:27:59;94285.19;;;20.81;100.00
13209;BME280;6669;42.678;23.332;2022-08-19T02:30:27;94281.22;;;20.78;100.00
13209;BME280;6669;42.678;23.332;2022-08-19T02:32:56;94276.56;;;20.68;100.00
13209;BME280;6669;42.678;23.332;2022-08-19T02:35:25;94281.22;;;20.78;100.00
13209;BME280;6669;42.678;23.332;2022-08-19T02:37:53;94282.28;;;20.77;100.00
13209;BME280;6669;42.678;23.332;2022-08-19T02:40:40;94281.78;;;20.80;100.00
13209;BME280;6669;42.678;23.332;2022-08-19T02:43:09;94282.34;;;20.82;100.00
13209;BME280;6669;42.678;23.332;2022-08-19T02:45:38;94277.28;;;20.64;100.00
13209;BME280;6669;42.678;23.332;2022-08-19T02:48:07;94288.19;;;20.67;100.00
13209;BME280;6669;42.678;23.332;2022-08-19T02:50:48;94283.09;;;20.44;100.00
13209;BME280;6669;42.678;23.332;2022-08-19T02:53:22;94287.88;;;20.30;100.00
13209;BME280;6669;42.678;23.332;2022-08-19T02:55:52;94293.66;;;20.27;100.00
13209;BME280;6669;42.678;23.332;2022-08-19T02:58:21;94295.13;;;20.17;100.00
13209;BME280;6669;42.678;23.332;2022-08-19T03:00:52;94296.06;;;20.11;100.00
13209;BME280;6669;42.678;23.332;2022-08-19T03:03:21;94286.38;;;20.00;100.00
13209;BME280;6669;42.678;23.332;2022-08-19T03:05:50;94293.97;;;19.96;100.00
13209;BME280;6669;42.678;23.332;2022-08-19T03:08:22;94278.53;;;19.88;100.00
13209;BME280;6669;42.678;23.332;2022-08-19T03:10:52;94284.53;;;19.83;100.00
13209;BME280;6669;42.678;23.332;2022-08-19T03:13:21;94284.41;;;19.78;100.00
13209;BME280;6669;42.678;23.332;2022-08-19T03:15:49;94279.59;;;19.75;100.00
13209;BME280;6669;42.678;23.332;2022-08-19T03:18:17;94278.72;;;19.69;100.00
13209;BME280;6669;42.678;23.332;2022-08-19T03:20:50;94280.09;;;19.72;100.00
13209;BME280;6669;42.678;23.332;2022-08-19T03:23:19;94269.63;;;19.77;100.00
13209;BME280;6669;42.678;23.332;2022-08-19T03:25:51;94273.88;;;19.78;100.00
13209;BME280;6669;42.678;23.332;2022-08-19T03:28:41;94271.13;;;19.73;100.00
13209;BME280;6669;42.678;23.332;2022-08-19T03:31:25;94276.09;;;19.69;100.00
13209;BME280;6669;42.678;23.332;2022-08-19T03:34:15;94274.31;;;19.75;100.00
13209;BME280;6669;42.678;23.332;2022-08-19T03:36:45;94276.09;;;19.69;100.00
13209;BME280;6669;42.678;23.332;2022-08-19T03:39:14;94283.41;;;19.67;100.00
13209;BME280;6669;42.678;23.332;2022-08-19T03:41:44;94276.09;;;19.69;100.00
13209;BME280;6669;42.678;23.332;2022-08-19T03:44:17;94282.22;;;19.75;100.00
13209;BME280;6669;42.678;23.332;2022-08-19T03:46:48;94282.03;;;19.76;100.00
13209;BME280;6669;42.678;23.332;2022-08-19T03:49:16;94278.81;;;19.74;100.00
13209;BME280;6669;42.678;23.332;2022-08-19T03:51:47;94288.31;;;19.75;100.00
13209;BME280;6669;42.678;23.332;2022-08-19T03:54:18;94282.72;;;19.72;100.00
13209;BME280;6669;42.678;23.332;2022-08-19T03:56:48;94292.09;;;19.80;100.00
13209;BME280;6669;42.678;23.332;2022-08-19T03:59:23;94296.91;;;19.83;100.00
13209;BME280;6669;42.678;23.332;2022-08-19T04:01:53;94304.44;;;19.91;100.00
13209;BME280;6669;42.678;23.332;2022-08-19T04:04:21;94305.22;;;19.91;100.00
13209;BME280;6669;42.678;23.332;2022-08-19T04:06:50;94308.53;;;19.99;100.00
13209;BME280;6669;42.678;23.332;2022-08-19T04:09:19;94318.66;;;20.07;100.00
13209;BME280;6669;42.678;23.332;2022-08-19T04:11:50;94302.22;;;20.00;100.00
13209;BME280;6669;42.678;23.332;2022-08-19T04:14:24;94311.31;;;20.09;100.00
13209;BME280;6669;42.678;23.332;2022-08-19T04:16:53;94320.09;;;20.15;100.00
13209;BME280;6669;42.678;23.332;2022-08-19T04:19:21;94312.75;;;20.17;100.00
13209;BME280;6669;42.678;23.332;2022-08-19T04:21:51;94315.50;;;20.22;100.00
13209;BME280;6669;42.678;23.332;2022-08-19T04:24:20;94315.16;;;20.18;100.00
13209;BME280;6669;42.678;23.332;2022-08-19T04:26:49;94313.66;;;20.22;100.00
13209;BME280;6669;42.678;23.332;2022-08-19T04:29:19;94323.81;;;20.31;100.00
13209;BME280;6669;42.678;23.332;2022-08-19T04:31:50;94313.75;;;20.28;100.00
13209;BME280;6669;42.678;23.332;2022-08-19T04:34:21;94313.81;;;20.33;100.00
13209;BME280;6669;42.678;23.332;2022-08-19T04:36:51;94325.06;;;20.45;100.00
13209;BME280;6669;42.678;23.332;2022-08-19T04:39:22;94322.03;;;20.53;100.00
13209;BME280;6669;42.678;23.332;2022-08-19T04:42:10;94323.78;;;20.65;100.00
13209;BME280;6669;42.678;23.332;2022-08-19T04:44:56;94324.75;;;20.58;100.00
13209;BME280;6669;42.678;23.332;2022-08-19T04:47:26;94317.88;;;20.57;100.00
13209;BME280;6669;42.678;23.332;2022-08-19T04:50:15;94320.69;;;20.51;100.00
13209;BME280;6669;42.678;23.332;2022-08-19T04:52:43;94323.56;;;20.49;100.00
13209;BME280;6669;42.678;23.332;2022-08-19T04:55:11;94323.56;;;20.49;100.00
13209;BME280;6669;42.678;23.332;2022-08-19T04:57:40;94323.97;;;20.41;100.00
13209;BME280;6669;42.678;23.332;2022-08-19T05:00:10;94325.25;;;20.55;100.00
13209;BME280;6669;42.678;23.332;2022-08-19T05:02:39;94330.03;;;20.58;100.00
13209;BME280;6669;42.678;23.332;2022-08-19T05:05:08;94327.47;;;20.64;100.00
13209;BME280;6669;42.678;23.332;2022-08-19T05:07:36;94323.28;;;20.68;100.00
13209;BME280;6669;42.678;23.332;2022-08-19T05:10:05;94326.03;;;20.73;100.00
13209;BME280;6669;42.678;23.332;2022-08-19T05:12:33;94330.84;;;20.76;100.00
13209;BME280;6669;42.678;23.332;2022-08-19T05:15:03;94320.34;;;20.81;100.00
13209;BME280;6669;42.678;23.332;2022-08-19T05:17:32;94329.28;;;20.97;100.00
13209;BME280;6669;42.678;23.332;2022-08-19T05:20:07;94329.53;;;20.96;100.00
13209;BME280;6669;42.678;23.332;2022-08-19T05:22:53;94324.44;;;21.11;100.00
13209;BME280;6669;42.678;23.332;2022-08-19T05:25:21;94327.88;;;21.12;100.00
13209;BME280;6669;42.678;23.332;2022-08-19T05:27:52;94329.63;;;21.23;100.00
13209;BME280;6669;42.678;23.332;2022-08-19T05:30:20;94330.47;;;21.29;100.00
13209;BME280;6669;42.678;23.332;2022-08-19T05:33:08;94347.50;;;21.38;100.00
13209;BME280;6669;42.678;23.332;2022-08-19T05:35:40;94329.53;;;21.40;100.00
13209;BME280;6669;42.678;23.332;2022-08-19T05:38:08;94325.97;;;21.51;100.00
13209;BME280;6669;42.678;23.332;2022-08-19T05:40:38;94341.00;;;21.68;100.00
13209;BME280;6669;42.678;23.332;2022-08-19T05:43:07;94336.75;;;21.67;100.00
13209;BME280;6669;42.678;23.332;2022-08-19T05:45:38;94346.69;;;21.82;100.00
13209;BME280;6669;42.678;23.332;2022-08-19T05:48:06;94348.34;;;21.88;100.00
13209;BME280;6669;42.678;23.332;2022-08-19T05:50:38;94347.63;;;21.98;100.00
13209;BME280;6669;42.678;23.332;2022-08-19T05:53:07;94342.69;;;22.07;100.00
13209;BME280;6669;42.678;23.332;2022-08-19T05:55:36;94356.53;;;22.14;100.00
13209;BME280;6669;42.678;23.332;2022-08-19T05:58:06;94351.22;;;22.14;100.00
13209;BME280;6669;42.678;23.332;2022-08-19T06:00:35;94350.44;;;22.13;100.00
13209;BME280;6669;42.678;23.332;2022-08-19T06:03:03;94339.91;;;22.18;100.00
13209;BME280;6669;42.678;23.332;2022-08-19T06:05:38;94353.78;;;22.36;100.00
13209;BME280;6669;42.678;23.332;2022-08-19T06:08:19;94343.25;;;22.41;100.00
13209;BME280;6669;42.678;23.332;2022-08-19T06:11:16;94342.78;;;22.44;100.00
13209;BME280;6669;42.678;23.332;2022-08-19T06:13:46;94356.88;;;22.55;100.00
13209;BME280;6669;42.678;23.332;2022-08-19T06:16:17;94357.50;;;22.67;100.00
13209;BME280;6669;42.678;23.332;2022-08-19T06:18:50;94361.56;;;22.80;100.00
13209;BME280;6669;42.678;23.332;2022-08-19T06:21:19;94369.06;;;22.89;100.00
13209;BME280;6669;42.678;23.332;2022-08-19T06:23:49;94372.81;;;22.98;100.00
13209;BME280;6669;42.678;23.332;2022-08-19T06:26:19;94365.94;;;23.02;100.00
13209;BME280;6669;42.678;23.332;2022-08-19T06:28:48;94359.13;;;23.11;100.00
13209;BME280;6669;42.678;23.332;2022-08-19T06:31:17;94352.72;;;23.07;100.00
13209;BME280;6669;42.678;23.332;2022-08-19T06:33:47;94373.50;;;23.21;100.00
13209;BME280;6669;42.678;23.332;2022-08-19T06:36:17;94367.19;;;23.32;100.00
13209;BME280;6669;42.678;23.332;2022-08-19T06:38:52;94371.44;;;23.33;100.00
13209;BME280;6669;42.678;23.332;2022-08-19T06:41:20;94370.97;;;23.46;100.00
13209;BME280;6669;42.678;23.332;2022-08-19T06:43:48;94367.53;;;23.51;100.00
13209;BME280;6669;42.678;23.332;2022-08-19T06:46:20;94367.81;;;23.49;100.00
13209;BME280;6669;42.678;23.332;2022-08-19T06:48:48;94363.31;;;23.60;100.00
13209;BME280;6669;42.678;23.332;2022-08-19T06:51:17;94366.81;;;23.71;100.00
13209;BME280;6669;42.678;23.332;2022-08-19T06:53:48;94361.53;;;23.71;100.00
13209;BME280;6669;42.678;23.332;2022-08-19T06:56:21;94360.72;;;23.81;100.00
13209;BME280;6669;42.678;23.332;2022-08-19T06:58:51;94365.31;;;23.91;100.00
13209;BME280;6669;42.678;23.332;2022-08-19T07:01:19;94352.53;;;23.88;100.00
13209;BME280;6669;42.678;23.332;2022-08-19T07:03:48;94368.25;;;24.05;100.00
13209;BME280;6669;42.678;23.332;2022-08-19T07:06:17;94371.19;;;24.13;100.00
13209;BME280;6669;42.678;23.332;2022-08-19T07:09:10;94380.22;;;24.23;100.00
13209;BME280;6669;42.678;23.332;2022-08-19T07:11:43;94380.25;;;24.33;100.00
13209;BME280;6669;42.678;23.332;2022-08-19T07:14:12;94383.44;;;24.45;100.00
13209;BME280;6669;42.678;23.332;2022-08-19T07:16:47;94378.91;;;24.56;100.00
13209;BME280;6669;42.678;23.332;2022-08-19T07:19:16;94381.34;;;24.68;100.00
13209;BME280;6669;42.678;23.332;2022-08-19T07:21:45;94374.44;;;24.67;100.00
13209;BME280;6669;42.678;23.332;2022-08-19T07:24:14;94373.91;;;24.70;100.00
13209;BME280;6669;42.678;23.332;2022-08-19T07:26:44;94379.75;;;24.77;100.00
13209;BME280;6669;42.678;23.332;2022-08-19T07:29:18;94378.69;;;24.84;100.00
13209;BME280;6669;42.678;23.332;2022-08-19T07:31:51;94372.28;;;24.95;100.00
13209;BME280;6669;42.678;23.332;2022-08-19T07:34:23;94381.00;;;25.11;100.00
13209;BME280;6669;42.678;23.332;2022-08-19T07:36:52;94377.53;;;25.21;100.00
13209;BME280;6669;42.678;23.332;2022-08-19T07:39:22;94377.25;;;25.38;100.00
13209;BME280;6669;42.678;23.332;2022-08-19T07:41:53;94377.47;;;25.52;100.00
13209;BME280;6669;42.678;23.332;2022-08-19T07:44:21;94369.75;;;25.55;100.00
13209;BME280;6669;42.678;23.332;2022-08-19T07:46:52;94363.53;;;25.75;100.00
13209;BME280;6669;42.678;23.332;2022-08-19T07:49:20;94366.41;;;25.84;100.00
13209;BME280;6669;42.678;23.332;2022-08-19T07:51:51;94376.19;;;25.99;100.00
13209;BME280;6669;42.678;23.332;2022-08-19T07:54:21;94370.31;;;26.07;100.00
13209;BME280;6669;42.678;23.332;2022-08-19T07:56:51;94371.09;;;26.13;100.00
13209;BME280;6669;42.678;23.332;2022-08-19T07:59:20;94371.28;;;26.27;100.00
13209;BME280;6669;42.678;23.332;2022-08-19T08:01:49;94380.19;;;26.47;100.00
13209;BME280;6669;42.678;23.332;2022-08-19T08:04:18;94378.00;;;26.54;100.00
13209;BME280;6669;42.678;23.332;2022-08-19T08:07:04;94374.25;;;26.55;100.00
13209;BME280;6669;42.678;23.332;2022-08-19T08:09:57;94379.22;;;26.67;100.00
13209;BME280;6669;42.678;23.332;2022-08-19T08:12:34;94373.78;;;26.82;100.00
13209;BME280;6669;42.678;23.332;2022-08-19T08:15:07;94370.19;;;26.97;100.00
13209;BME280;6669;42.678;23.332;2022-08-19T08:17:38;94370.50;;;27.20;100.00
13209;BME280;6669;42.678;23.332;2022-08-19T08:20:18;94368.44;;;27.36;100.00
13209;BME280;6669;42.678;23.332;2022-08-19T08:22:47;94357.31;;;27.53;100.00
13209;BME280;6669;42.678;23.332;2022-08-19T08:25:34;94353.44;;;27.64;100.00
13209;BME280;6669;42.678;23.332;2022-08-19T08:28:04;94345.81;;;27.77;100.00
13209;BME280;6669;42.678;23.332;2022-08-19T08:30:37;94350.47;;;27.90;100.00
13209;BME280;6669;42.678;23.332;2022-08-19T08:33:11;94359.06;;;28.06;100.00
13209;BME280;6669;42.678;23.332;2022-08-19T08:35:42;94358.94;;;28.16;100.00
13209;BME280;6669;42.678;23.332;2022-08-19T08:38:12;94355.84;;;28.28;100.00
13209;BME280;6669;42.678;23.332;2022-08-19T08:40:44;94352.91;;;28.44;100.00
13209;BME280;6669;42.678;23.332;2022-08-19T08:43:22;94351.16;;;28.53;99.65
13209;BME280;6669;42.678;23.332;2022-08-19T08:46:04;94347.25;;;28.64;100.00
13209;BME280;6669;42.678;23.332;2022-08-19T08:48:39;94348.28;;;28.82;100.00
13209;BME280;6669;42.678;23.332;2022-08-19T08:51:15;94344.56;;;28.97;100.00
13209;BME280;6669;42.678;23.332;2022-08-19T08:53:47;94352.72;;;29.20;99.02
13209;BME280;6669;42.678;23.332;2022-08-19T08:56:21;94346.97;;;29.27;85.78
13209;BME280;6669;42.678;23.332;2022-08-19T08:58:57;94343.44;;;29.31;82.20
13209;BME280;6669;42.678;23.332;2022-08-19T09:01:26;94338.47;;;29.39;82.36
13209;BME280;6669;42.678;23.332;2022-08-19T09:03:57;94342.63;;;29.45;85.56
13209;BME280;6669;42.678;23.332;2022-08-19T09:06:34;94332.91;;;29.49;83.31
13209;BME280;6669;42.678;23.332;2022-08-19T09:09:14;94327.72;;;29.66;84.14
13209;BME280;6669;42.678;23.332;2022-08-19T09:11:52;94337.34;;;29.81;77.47
13209;BME280;6669;42.678;23.332;2022-08-19T09:14:36;94325.63;;;29.91;72.49
13209;BME280;6669;42.678;23.332;2022-08-19T09:17:19;94335.94;;;29.98;70.38
13209;BME280;6669;42.678;23.332;2022-08-19T09:20:00;94306.06;;;29.91;70.54
13209;BME280;6669;42.678;23.332;2022-08-19T09:22:35;94321.69;;;30.11;70.77
13209;BME280;6669;42.678;23.332;2022-08-19T09:25:05;94319.06;;;30.20;76.14
13209;BME280;6669;42.678;23.332;2022-08-19T09:27:36;94317.66;;;30.23;71.41
13209;BME280;6669;42.678;23.332;2022-08-19T09:30:14;94314.59;;;30.29;69.15
13209;BME280;6669;42.678;23.332;2022-08-19T09:32:43;94307.00;;;30.31;61.97
13209;BME280;6669;42.678;23.332;2022-08-19T09:35:30;94310.56;;;30.18;61.18
13209;BME280;6669;42.678;23.332;2022-08-19T09:38:15;94311.91;;;30.29;63.07
13209;BME280;6669;42.678;23.332;2022-08-19T09:40:46;94301.84;;;30.58;61.60
13209;BME280;6669;42.678;23.332;2022-08-19T09:43:14;94300.81;;;30.45;59.37
13209;BME280;6669;42.678;23.332;2022-08-19T09:46:05;94301.97;;;30.75;62.05
13209;BME280;6669;42.678;23.332;2022-08-19T09:48:36;94305.25;;;31.04;61.53
13209;BME280;6669;42.678;23.332;2022-08-19T09:51:05;94303.41;;;31.13;57.56
13209;BME280;6669;42.678;23.332;2022-08-19T09:53:38;94297.09;;;31.18;59.98
13209;BME280;6669;42.678;23.332;2022-08-19T09:56:06;94304.84;;;31.19;58.94
13209;BME280;6669;42.678;23.332;2022-08-19T09:58:35;94305.88;;;31.01;54.55
13209;BME280;6669;42.678;23.332;2022-08-19T10:01:06;94294.50;;;31.04;54.69
13209;BME280;6669;42.678;23.332;2022-08-19T10:03:36;94298.16;;;31.08;56.59
13209;BME280;6669;42.678;23.332;2022-08-19T10:06:05;94289.97;;;31.13;54.78
13209;BME280;6669;42.678;23.332;2022-08-19T10:08:43;94291.91;;;31.21;54.86
13209;BME280;6669;42.678;23.332;2022-08-19T10:11:16;94274.44;;;31.41;56.26
13209;BME280;6669;42.678;23.332;2022-08-19T10:14:02;94284.88;;;31.52;55.24
13209;BME280;6669;42.678;23.332;2022-08-19T10:16:36;94269.22;;;31.45;55.24
13209;BME280;6669;42.678;23.332;2022-08-19T10:19:05;94276.22;;;31.63;56.42
13209;BME280;6669;42.678;23.332;2022-08-19T10:21:33;94272.56;;;31.59;54.76
13209;BME280;6669;42.678;23.332;2022-08-19T10:24:04;94275.59;;;31.75;55.40
13209;BME280;6669;42.678;23.332;2022-08-19T10:26:37;94270.09;;;31.72;56.53
13209;BME280;6669;42.678;23.332;2022-08-19T10:29:08;94278.31;;;32.02;57.58
13209;BME280;6669;42.678;23.332;2022-08-19T10:31:39;94268.50;;;32.23;57.44
13209;BME280;6669;42.678;23.332;2022-08-19T10:34:28;94266.91;;;32.40;53.74
13209;BME280;6669;42.678;23.332;2022-08-19T10:36:57;94264.63;;;32.77;53.25
13209;BME280;6669;42.678;23.332;2022-08-19T10:39:36;94261.59;;;33.17;53.64
13209;BME280;6669;42.678;23.332;2022-08-19T10:42:09;94249.53;;;33.53;53.92
13209;BME280;6669;42.678;23.332;2022-08-19T10:44:40;94264.28;;;34.19;52.54
13209;BME280;6669;42.678;23.332;2022-08-19T10:47:17;94267.94;;;34.82;49.70
13209;BME280;6669;42.678;23.332;2022-08-19T10:49:51;94260.69;;;35.07;48.85
13209;BME280;6669;42.678;23.332;2022-08-19T10:52:38;94254.59;;;35.23;47.58
13209;BME280;6669;42.678;23.332;2022-08-19T10:55:24;94253.28;;;35.41;48.36
13209;BME280;6669;42.678;23.332;2022-08-19T10:58:24;94256.44;;;35.96;48.59
13209;BME280;6669;42.678;23.332;2022-08-19T11:00:54;94251.78;;;36.09;47.45
13209;BME280;6669;42.678;23.332;2022-08-19T11:03:25;94254.44;;;36.22;47.59
13209;BME280;6669;42.678;23.332;2022-08-19T11:05:58;94254.06;;;36.52;47.47
13209;BME280;6669;42.678;23.332;2022-08-19T11:08:30;94247.97;;;35.98;46.35
13209;BME280;6669;42.678;23.332;2022-08-19T11:11:00;94269.59;;;36.10;45.69
13209;BME280;6669;42.678;23.332;2022-08-19T11:13:32;94256.13;;;36.26;45.96
13209;BME280;6669;42.678;23.332;2022-08-19T11:16:02;94243.50;;;36.46;45.57
13209;BME280;6669;42.678;23.332;2022-08-19T11:18:36;94247.53;;;36.53;45.47
13209;BME280;6669;42.678;23.332;2022-08-19T11:21:09;94248.72;;;36.84;45.08
13209;BME280;6669;42.678;23.332;2022-08-19T11:23:38;94250.44;;;36.76;45.08
13209;BME280;6669;42.678;23.332;2022-08-19T11:26:07;94247.91;;;36.67;45.45
13209;BME280;6669;42.678;23.332;2022-08-19T11:28:36;94246.50;;;36.73;44.13
13209;BME280;6669;42.678;23.332;2022-08-19T11:31:10;94231.94;;;36.78;44.74
13209;BME280;6669;42.678;23.332;2022-08-19T11:33:39;94239.03;;;37.14;45.07
13209;BME280;6669;42.678;23.332;2022-08-19T11:36:13;94235.25;;;37.19;44.05
13209;BME280;6669;42.678;23.332;2022-08-19T11:38:43;94230.31;;;37.57;44.31
13209;BME280;6669;42.678;23.332;2022-08-19T11:41:11;94227.00;;;37.83;44.62
13209;BME280;6669;42.678;23.332;2022-08-19T11:43:39;94227.38;;;37.82;44.13
13209;BME280;6669;42.678;23.332;2022-08-19T11:46:10;94222.81;;;37.50;43.07
13209;BME280;6669;42.678;23.332;2022-08-19T11:48:40;94230.81;;;37.62;44.48
13209;BME280;6669;42.678;23.332;2022-08-19T11:51:10;94224.91;;;37.76;43.65
13209;BME280;6669;42.678;23.332;2022-08-19T11:53:39;94216.53;;;37.82;44.08
13209;BME280;6669;42.678;23.332;2022-08-19T11:56:08;94223.72;;;38.33;43.79
13209;BME280;6669;42.678;23.332;2022-08-19T11:58:37;94211.06;;;38.64;43.64
13209;BME280;6669;42.678;23.332;2022-08-19T12:01:06;94227.72;;;39.08;42.98
13209;BME280;6669;42.678;23.332;2022-08-19T12:03:35;94224.22;;;39.08;42.48
13209;BME280;6669;42.678;23.332;2022-08-19T12:06:06;94207.97;;;38.85;41.86
13209;BME280;6669;42.678;23.332;2022-08-19T12:08:35;94206.69;;;38.79;41.53
13209;BME280;6669;42.678;23.332;2022-08-19T12:11:03;94207.16;;;38.61;41.80
13209;BME280;6669;42.678;23.332;2022-08-19T12:13:38;94203.22;;;38.82;42.82
13209;BME280;6669;42.678;23.332;2022-08-19T12:16:08;94197.88;;;38.85;42.15
13209;BME280;6669;42.678;23.332;2022-08-19T12:18:37;94191.28;;;38.86;43.04
13209;BME280;6669;42.678;23.332;2022-08-19T12:21:09;94199.84;;;38.88;42.06
13209;BME280;6669;42.678;23.332;2022-08-19T12:23:40;94187.44;;;38.87;41.24
13209;BME280;6669;42.678;23.332;2022-08-19T12:26:10;94186.78;;;39.21;40.88
13209;BME280;6669;42.678;23.332;2022-08-19T12:28:38;94177.97;;;39.31;40.87
13209;BME280;6669;42.678;23.332;2022-08-19T12:31:09;94179.44;;;39.25;40.84
13209;BME280;6669;42.678;23.332;2022-08-19T12:33:38;94174.66;;;39.72;39.72
13209;BME280;6669;42.678;23.332;2022-08-19T12:36:13;94177.94;;;39.58;40.16
13209;BME280;6669;42.678;23.332;2022-08-19T12:38:42;94172.97;;;39.64;39.90
13209;BME280;6669;42.678;23.332;2022-08-19T12:41:14;94172.97;;;39.64;39.86
13209;BME280;6669;42.678;23.332;2022-08-19T12:43:45;94164.59;;;39.76;39.94
13209;BME280;6669;42.678;23.332;2022-08-19T12:46:15;94163.25;;;39.93;40.68
13209;BME280;6669;42.678;23.332;2022-08-19T12:48:43;94161.63;;;40.23;39.07
13209;BME280;6669;42.678;23.332;2022-08-19T12:51:18;94172.63;;;40.37;39.43
13209;BME280;6669;42.678;23.332;2022-08-19T12:53:47;94163.50;;;40.15;39.88
13209;BME280;6669;42.678;23.332;2022-08-19T12:56:16;94162.41;;;40.23;40.34
13209;BME280;6669;42.678;23.332;2022-08-19T12:58:49;94159.78;;;40.34;38.77
13209;BME280;6669;42.678;23.332;2022-08-19T13:01:19;94153.31;;;40.49;39.11
13209;BME280;6669;42.678;23.332;2022-08-19T13:03:49;94147.91;;;40.53;40.90
13209;BME280;6669;42.678;23.332;2022-08-19T13:06:21;94151.44;;;40.57;40.23
13209;BME280;6669;42.678;23.332;2022-08-19T13:08:49;94143.19;;;40.95;39.60
13209;BME280;6669;42.678;23.332;2022-08-19T13:11:23;94145.84;;;41.47;40.11
13209;BME280;6669;42.678;23.332;2022-08-19T13:13:52;94138.00;;;41.38;39.14
13209;BME280;6669;42.678;23.332;2022-08-19T13:16:21;94138.22;;;41.89;39.15
13209;BME280;6669;42.678;23.332;2022-08-19T13:18:50;94145.28;;;42.01;39.18